sensor_id;sensor_type;location;lat;lon;timestamp;temperature;humidity
19813;DHT22;10066;48.108;11.448;2024-02-23T00:02:06;6.80;99.90
19813;DHT22;10066;48.108;11.448;2024-02-23T00:04:33;6.80;99.90
19813;DHT22;10066;48.108;11.448;2024-02-23T00:07:00;6.70;99.90
19813;DHT22;10066;48.108;11.448;2024-02-23T00:09:29;6.70;99.90
19813;DHT22;10066;48.108;11.448;2024-02-23T00:11:55;6.70;99.90
19813;DHT22;10066;48.108;11.448;2024-02-23T00:14:24;6.70;99.90
19813;DHT22;10066;48.108;11.448;2024-02-23T00:16:51;6.60;99.90
19813;DHT22;10066;48.108;11.448;2024-02-23T00:19:18;6.60;99.90
19813;DHT22;10066;48.108;11.448;2024-02-23T00:21:46;6.60;99.90
19813;DHT22;10066;48.108;11.448;2024-02-23T00:24:15;6.60;99.90
19813;DHT22;10066;48.108;11.448;2024-02-23T00:26:43;6.60;99.90
19813;DHT22;10066;48.108;11.448;2024-02-23T00:29:10;6.50;99.90
19813;DHT22;10066;48.108;11.448;2024-02-23T00:31:39;6.50;99.90
19813;DHT22;10066;48.108;11.448;2024-02-23T00:34:07;6.50;99.90
19813;DHT22;10066;48.108;11.448;2024-02-23T00:36:36;6.50;99.90
19813;DHT22;10066;48.108;11.448;2024-02-23T00:39:03;6.40;99.90
19813;DHT22;10066;48.108;11.448;2024-02-23T00:41:30;6.40;99.90
19813;DHT22;10066;48.108;11.448;2024-02-23T00:43:57;6.40;99.90
19813;DHT22;10066;48.108;11.448;2024-02-23T00:46:24;6.40;99.90
19813;DHT22;10066;48.108;11.448;2024-02-23T00:48:53;6.40;99.90
19813;DHT22;10066;48.108;11.448;2024-02-23T00:51:20;6.40;99.90
19813;DHT22;10066;48.108;11.448;2024-02-23T00:53:47;6.40;99.90
19813;DHT22;10066;48.108;11.448;2024-02-23T00:56:14;6.40;99.90
19813;DHT22;10066;48.108;11.448;2024-02-23T00:58:41;6.40;99.90
19813;DHT22;10066;48.108;11.448;2024-02-23T01:01:08;6.40;99.90
19813;DHT22;10066;48.108;11.448;2024-02-23T01:03:35;6.40;99.90
19813;DHT22;10066;48.108;11.448;2024-02-23T01:06:04;6.40;99.90
19813;DHT22;10066;48.108;11.448;2024-02-23T01:08:31;6.40;99.90
19813;DHT22;10066;48.108;11.448;2024-02-23T01:10:58;6.40;99.90
19813;DHT22;10066;48.108;11.448;2024-02-23T01:13:25;6.40;99.90
19813;DHT22;10066;48.108;11.448;2024-02-23T01:15:52;6.40;99.90
19813;DHT22;10066;48.108;11.448;2024-02-23T01:18:19;6.40;99.90
19813;DHT22;10066;48.108;11.448;2024-02-23T01:20:46;6.50;99.90
19813;DHT22;10066;48.108;11.448;2024-02-23T01:23:15;6.50;99.90
19813;DHT22;10066;48.108;11.448;2024-02-23T01:25:42;6.50;99.90
19813;DHT22;10066;48.108;11.448;2024-02-23T01:28:09;6.50;99.90
19813;DHT22;10066;48.108;11.448;2024-02-23T01:30:36;6.50;99.90
19813;DHT22;10066;48.108;11.448;2024-02-23T01:33:03;6.60;99.90
19813;DHT22;10066;48.108;11.448;2024-02-23T01:35:30;6.60;99.90
19813;DHT22;10066;48.108;11.448;2024-02-23T01:37:57;6.60;99.90
19813;DHT22;10066;48.108;11.448;2024-02-23T01:40:26;6.70;99.90
19813;DHT22;10066;48.108;11.448;2024-02-23T01:43:01;6.70;99.90
19813;DHT22;10066;48.108;11.448;2024-02-23T01:45:29;6.70;99.90
19813;DHT22;10066;48.108;11.448;2024-02-23T01:47:56;6.70;99.90
19813;DHT22;10066;48.108;11.448;2024-02-23T01:50:24;6.70;99.90
19813;DHT22;10066;48.108;11.448;2024-02-23T01:52:51;6.70;99.90
19813;DHT22;10066;48.108;11.448;2024-02-23T01:55:20;6.70;99.90
19813;DHT22;10066;48.108;11.448;2024-02-23T01:57:50;6.70;99.90
19813;DHT22;10066;48.108;11.448;2024-02-23T02:00:18;6.60;99.90
19813;DHT22;10066;48.108;11.448;2024-02-23T02:02:47;6.60;99.90
19813;DHT22;10066;48.108;11.448;2024-02-23T02:05:14;6.60;99.90
19813;DHT22;10066;48.108;11.448;2024-02-23T02:07:41;6.60;99.90
19813;DHT22;10066;48.108;11.448;2024-02-23T02:10:09;6.60;99.90
19813;DHT22;10066;48.108;11.448;2024-02-23T02:12:36;6.60;99.90
19813;DHT22;10066;48.108;11.448;2024-02-23T02:15:07;6.60;99.90
19813;DHT22;10066;48.108;11.448;2024-02-23T02:17:35;6.50;99.90
19813;DHT22;10066;48.108;11.448;2024-02-23T02:20:03;6.50;99.90
19813;DHT22;10066;48.108;11.448;2024-02-23T02:22:32;6.50;99.90
19813;DHT22;10066;48.108;11.448;2024-02-23T02:24:59;6.50;99.90
19813;DHT22;10066;48.108;11.448;2024-02-23T02:27:26;6.50;99.90
19813;DHT22;10066;48.108;11.448;2024-02-23T02:29:53;6.50;99.90
19813;DHT22;10066;48.108;11.448;2024-02-23T02:32:23;6.50;99.90
19813;DHT22;10066;48.108;11.448;2024-02-23T02:34:50;6.40;99.90
19813;DHT22;10066;48.108;11.448;2024-02-23T02:37:17;6.50;99.90
19813;DHT22;10066;48.108;11.448;2024-02-23T02:39:44;6.50;99.90
19813;DHT22;10066;48.108;11.448;2024-02-23T02:42:11;6.50;99.90
19813;DHT22;10066;48.108;11.448;2024-02-23T02:44:38;6.50;99.90
19813;DHT22;10066;48.108;11.448;2024-02-23T02:47:06;6.50;99.90
19813;DHT22;10066;48.108;11.448;2024-02-23T02:49:34;6.60;99.90
19813;DHT22;10066;48.108;11.448;2024-02-23T02:52:01;6.60;99.90
19813;DHT22;10066;48.108;11.448;2024-02-23T02:54:28;6.60;99.90
19813;DHT22;10066;48.108;11.448;2024-02-23T02:56:55;6.60;99.90
19813;DHT22;10066;48.108;11.448;2024-02-23T02:59:23;6.60;99.90
19813;DHT22;10066;48.108;11.448;2024-02-23T03:01:50;6.60;99.90
19813;DHT22;10066;48.108;11.448;2024-02-23T03:04:17;6.70;99.90
19813;DHT22;10066;48.108;11.448;2024-02-23T03:06:45;6.60;99.90
19813;DHT22;10066;48.108;11.448;2024-02-23T03:09:13;6.60;99.90
19813;DHT22;10066;48.108;11.448;2024-02-23T03:11:40;6.60;99.90
19813;DHT22;10066;48.108;11.448;2024-02-23T03:14:07;6.60;99.90
19813;DHT22;10066;48.108;11.448;2024-02-23T03:16:35;6.60;99.90
19813;DHT22;10066;48.108;11.448;2024-02-23T03:19:03;6.50;99.90
19813;DHT22;10066;48.108;11.448;2024-02-23T03:21:30;6.50;99.90
19813;DHT22;10066;48.108;11.448;2024-02-23T03:23:58;6.50;99.90
19813;DHT22;10066;48.108;11.448;2024-02-23T03:26:25;6.50;99.90
19813;DHT22;10066;48.108;11.448;2024-02-23T03:28:53;6.50;99.90
19813;DHT22;10066;48.108;11.448;2024-02-23T03:31:20;6.50;99.90
19813;DHT22;10066;48.108;11.448;2024-02-23T03:33:47;6.50;99.90
19813;DHT22;10066;48.108;11.448;2024-02-23T03:36:14;6.40;99.90
19813;DHT22;10066;48.108;11.448;2024-02-23T03:38:41;6.40;99.90
19813;DHT22;10066;48.108;11.448;2024-02-23T03:41:09;6.40;99.90
19813;DHT22;10066;48.108;11.448;2024-02-23T03:43:36;6.40;99.90
19813;DHT22;10066;48.108;11.448;2024-02-23T03:46:03;6.40;99.90
19813;DHT22;10066;48.108;11.448;2024-02-23T03:48:32;6.40;99.90
19813;DHT22;10066;48.108;11.448;2024-02-23T03:50:59;6.40;99.90
19813;DHT22;10066;48.108;11.448;2024-02-23T03:53:28;6.30;99.90
19813;DHT22;10066;48.108;11.448;2024-02-23T03:55:55;6.30;99.90
19813;DHT22;10066;48.108;11.448;2024-02-23T03:58:23;6.30;99.90
19813;DHT22;10066;48.108;11.448;2024-02-23T04:00:51;6.30;99.90
19813;DHT22;10066;48.108;11.448;2024-02-23T04:03:18;6.40;99.90
19813;DHT22;10066;48.108;11.448;2024-02-23T04:05:45;6.40;99.90
19813;DHT22;10066;48.108;11.448;2024-02-23T04:08:12;6.30;99.90
19813;DHT22;10066;48.108;11.448;2024-02-23T04:10:39;6.30;99.90
19813;DHT22;10066;48.108;11.448;2024-02-23T04:13:07;6.30;99.90
19813;DHT22;10066;48.108;11.448;2024-02-23T04:15:35;6.30;99.90
19813;DHT22;10066;48.108;11.448;2024-02-23T04:18:03;6.30;99.90
19813;DHT22;10066;48.108;11.448;2024-02-23T04:20:30;6.30;99.90
19813;DHT22;10066;48.108;11.448;2024-02-23T04:22:57;6.30;99.90
19813;DHT22;10066;48.108;11.448;2024-02-23T04:25:24;6.30;99.90
19813;DHT22;10066;48.108;11.448;2024-02-23T04:27:51;6.20;99.90
19813;DHT22;10066;48.108;11.448;2024-02-23T04:30:18;6.20;99.90
19813;DHT22;10066;48.108;11.448;2024-02-23T04:32:47;6.20;99.90
19813;DHT22;10066;48.108;11.448;2024-02-23T04:35:14;6.20;99.90
19813;DHT22;10066;48.108;11.448;2024-02-23T04:37:43;6.20;99.90
19813;DHT22;10066;48.108;11.448;2024-02-23T04:40:11;6.20;99.90
19813;DHT22;10066;48.108;11.448;2024-02-23T04:42:38;6.20;99.90
19813;DHT22;10066;48.108;11.448;2024-02-23T04:45:07;6.20;99.90
19813;DHT22;10066;48.108;11.448;2024-02-23T04:47:34;6.10;99.90
19813;DHT22;10066;48.108;11.448;2024-02-23T04:50:03;6.10;99.90
19813;DHT22;10066;48.108;11.448;2024-02-23T04:52:30;6.10;99.90
19813;DHT22;10066;48.108;11.448;2024-02-23T04:54:57;6.10;99.90
19813;DHT22;10066;48.108;11.448;2024-02-23T04:57:24;6.10;99.90
19813;DHT22;10066;48.108;11.448;2024-02-23T04:59:51;6.10;99.90
19813;DHT22;10066;48.108;11.448;2024-02-23T05:02:18;6.10;99.90
19813;DHT22;10066;48.108;11.448;2024-02-23T05:04:45;6.10;99.90
19813;DHT22;10066;48.108;11.448;2024-02-23T05:07:14;6.10;99.90
19813;DHT22;10066;48.108;11.448;2024-02-23T05:09:41;6.10;99.90
19813;DHT22;10066;48.108;11.448;2024-02-23T05:12:09;6.00;99.90
19813;DHT22;10066;48.108;11.448;2024-02-23T05:14:36;6.00;99.90
19813;DHT22;10066;48.108;11.448;2024-02-23T05:17:03;5.90;99.90
19813;DHT22;10066;48.108;11.448;2024-02-23T05:19:30;5.90;99.90
19813;DHT22;10066;48.108;11.448;2024-02-23T05:21:57;5.90;99.90
19813;DHT22;10066;48.108;11.448;2024-02-23T05:24:25;5.90;99.90
19813;DHT22;10066;48.108;11.448;2024-02-23T05:26:52;5.90;99.90
19813;DHT22;10066;48.108;11.448;2024-02-23T05:29:19;5.90;99.90
19813;DHT22;10066;48.108;11.448;2024-02-23T05:31:49;5.80;99.90
19813;DHT22;10066;48.108;11.448;2024-02-23T05:34:16;5.90;99.90
19813;DHT22;10066;48.108;11.448;2024-02-23T05:36:44;5.90;99.90
19813;DHT22;10066;48.108;11.448;2024-02-23T05:39:12;5.90;99.90
19813;DHT22;10066;48.108;11.448;2024-02-23T05:41:42;5.90;99.90
19813;DHT22;10066;48.108;11.448;2024-02-23T05:44:09;5.90;99.90
19813;DHT22;10066;48.108;11.448;2024-02-23T05:46:36;6.00;99.90
19813;DHT22;10066;48.108;11.448;2024-02-23T05:49:03;6.00;99.90
19813;DHT22;10066;48.108;11.448;2024-02-23T05:51:31;6.00;99.90
19813;DHT22;10066;48.108;11.448;2024-02-23T05:53:58;6.00;99.90
19813;DHT22;10066;48.108;11.448;2024-02-23T05:56:25;6.00;99.90
19813;DHT22;10066;48.108;11.448;2024-02-23T05:58:54;6.10;99.90
19813;DHT22;10066;48.108;11.448;2024-02-23T06:01:20;6.10;99.90
19813;DHT22;10066;48.108;11.448;2024-02-23T06:03:48;6.10;99.90
19813;DHT22;10066;48.108;11.448;2024-02-23T06:06:15;6.10;99.90
19813;DHT22;10066;48.108;11.448;2024-02-23T06:08:42;6.10;99.90
19813;DHT22;10066;48.108;11.448;2024-02-23T06:11:09;6.00;99.90
19813;DHT22;10066;48.108;11.448;2024-02-23T06:13:36;6.00;99.90
19813;DHT22;10066;48.108;11.448;2024-02-23T06:16:10;6.00;99.90
19813;DHT22;10066;48.108;11.448;2024-02-23T06:18:37;5.90;99.90
19813;DHT22;10066;48.108;11.448;2024-02-23T06:21:11;6.00;99.90
19813;DHT22;10066;48.108;11.448;2024-02-23T06:23:39;5.90;99.90
19813;DHT22;10066;48.108;11.448;2024-02-23T06:26:06;5.90;99.90
19813;DHT22;10066;48.108;11.448;2024-02-23T06:28:33;5.90;99.90
19813;DHT22;10066;48.108;11.448;2024-02-23T06:31:03;5.90;99.90
19813;DHT22;10066;48.108;11.448;2024-02-23T06:33:32;5.90;99.90
19813;DHT22;10066;48.108;11.448;2024-02-23T06:35:59;5.90;99.90
19813;DHT22;10066;48.108;11.448;2024-02-23T06:38:26;6.00;99.90
19813;DHT22;10066;48.108;11.448;2024-02-23T06:40:54;6.00;99.90
19813;DHT22;10066;48.108;11.448;2024-02-23T06:43:22;6.00;99.90
19813;DHT22;10066;48.108;11.448;2024-02-23T06:45:49;6.00;99.90
19813;DHT22;10066;48.108;11.448;2024-02-23T06:48:16;6.00;99.90
19813;DHT22;10066;48.108;11.448;2024-02-23T06:50:45;6.00;99.90
19813;DHT22;10066;48.108;11.448;2024-02-23T06:53:13;6.10;99.90
19813;DHT22;10066;48.108;11.448;2024-02-23T06:55:40;6.00;99.90
19813;DHT22;10066;48.108;11.448;2024-02-23T06:58:07;6.10;99.90
19813;DHT22;10066;48.108;11.448;2024-02-23T07:00:36;6.10;99.90
19813;DHT22;10066;48.108;11.448;2024-02-23T07:03:04;6.10;99.90
19813;DHT22;10066;48.108;11.448;2024-02-23T07:05:31;6.20;99.90
19813;DHT22;10066;48.108;11.448;2024-02-23T07:08:00;6.20;99.90
19813;DHT22;10066;48.108;11.448;2024-02-23T07:10:27;6.20;99.90
19813;DHT22;10066;48.108;11.448;2024-02-23T07:12:54;6.20;99.90
19813;DHT22;10066;48.108;11.448;2024-02-23T07:15:22;6.20;99.90
19813;DHT22;10066;48.108;11.448;2024-02-23T07:17:50;6.20;99.90
19813;DHT22;10066;48.108;11.448;2024-02-23T07:20:17;6.20;99.90
19813;DHT22;10066;48.108;11.448;2024-02-23T07:22:45;6.20;99.90
19813;DHT22;10066;48.108;11.448;2024-02-23T07:25:16;6.20;99.90
19813;DHT22;10066;48.108;11.448;2024-02-23T07:27:43;6.20;99.90
19813;DHT22;10066;48.108;11.448;2024-02-23T07:30:11;6.20;99.90
19813;DHT22;10066;48.108;11.448;2024-02-23T07:32:38;6.20;99.90
19813;DHT22;10066;48.108;11.448;2024-02-23T07:35:06;6.20;99.90
19813;DHT22;10066;48.108;11.448;2024-02-23T07:37:33;6.10;99.90
19813;DHT22;10066;48.108;11.448;2024-02-23T07:40:00;6.20;99.90
19813;DHT22;10066;48.108;11.448;2024-02-23T07:42:30;6.10;99.90
19813;DHT22;10066;48.108;11.448;2024-02-23T07:44:57;6.10;99.90
19813;DHT22;10066;48.108;11.448;2024-02-23T07:47:24;6.10;99.90
19813;DHT22;10066;48.108;11.448;2024-02-23T07:49:54;6.10;99.90
19813;DHT22;10066;48.108;11.448;2024-02-23T07:52:21;6.10;99.90
19813;DHT22;10066;48.108;11.448;2024-02-23T07:54:49;6.10;99.90
19813;DHT22;10066;48.108;11.448;2024-02-23T07:57:17;6.10;99.90
19813;DHT22;10066;48.108;11.448;2024-02-23T07:59:46;6.10;99.90
19813;DHT22;10066;48.108;11.448;2024-02-23T08:02:14;6.10;99.90
19813;DHT22;10066;48.108;11.448;2024-02-23T08:04:42;6.10;99.90
19813;DHT22;10066;48.108;11.448;2024-02-23T08:07:10;6.10;99.90
19813;DHT22;10066;48.108;11.448;2024-02-23T08:09:37;6.20;99.90
19813;DHT22;10066;48.108;11.448;2024-02-23T08:12:05;6.30;99.90
19813;DHT22;10066;48.108;11.448;2024-02-23T08:14:32;6.30;99.90
19813;DHT22;10066;48.108;11.448;2024-02-23T08:17:01;6.40;99.90
19813;DHT22;10066;48.108;11.448;2024-02-23T08:19:28;6.50;99.90
19813;DHT22;10066;48.108;11.448;2024-02-23T08:21:55;6.60;99.90
19813;DHT22;10066;48.108;11.448;2024-02-23T08:24:23;6.80;99.90
19813;DHT22;10066;48.108;11.448;2024-02-23T08:26:51;6.80;99.90
19813;DHT22;10066;48.108;11.448;2024-02-23T08:29:19;6.90;99.90
19813;DHT22;10066;48.108;11.448;2024-02-23T08:31:46;7.10;99.90
19813;DHT22;10066;48.108;11.448;2024-02-23T08:34:14;7.10;99.90
19813;DHT22;10066;48.108;11.448;2024-02-23T08:36:43;7.20;99.90
19813;DHT22;10066;48.108;11.448;2024-02-23T08:39:12;7.20;99.90
19813;DHT22;10066;48.108;11.448;2024-02-23T08:41:39;7.30;99.90
19813;DHT22;10066;48.108;11.448;2024-02-23T08:44:05;7.30;99.90
19813;DHT22;10066;48.108;11.448;2024-02-23T08:46:33;7.40;99.90
19813;DHT22;10066;48.108;11.448;2024-02-23T08:49:00;7.40;99.90
19813;DHT22;10066;48.108;11.448;2024-02-23T08:51:28;7.40;99.90
19813;DHT22;10066;48.108;11.448;2024-02-23T08:53:55;7.40;99.90
19813;DHT22;10066;48.108;11.448;2024-02-23T08:56:28;7.40;99.90
19813;DHT22;10066;48.108;11.448;2024-02-23T08:58:55;7.40;99.90
19813;DHT22;10066;48.108;11.448;2024-02-23T09:01:25;7.30;99.90
19813;DHT22;10066;48.108;11.448;2024-02-23T09:03:52;7.30;99.90
19813;DHT22;10066;48.108;11.448;2024-02-23T09:06:19;7.30;99.90
19813;DHT22;10066;48.108;11.448;2024-02-23T09:08:47;7.20;99.90
19813;DHT22;10066;48.108;11.448;2024-02-23T09:11:14;7.20;99.90
19813;DHT22;10066;48.108;11.448;2024-02-23T09:13:43;7.20;99.90
19813;DHT22;10066;48.108;11.448;2024-02-23T09:16:10;7.20;99.90
19813;DHT22;10066;48.108;11.448;2024-02-23T09:18:37;7.20;99.90
19813;DHT22;10066;48.108;11.448;2024-02-23T09:21:04;7.20;99.90
19813;DHT22;10066;48.108;11.448;2024-02-23T09:23:31;7.10;99.90
19813;DHT22;10066;48.108;11.448;2024-02-23T09:26:01;7.10;99.90
19813;DHT22;10066;48.108;11.448;2024-02-23T09:28:30;7.10;99.90
19813;DHT22;10066;48.108;11.448;2024-02-23T09:30:57;7.00;99.90
19813;DHT22;10066;48.108;11.448;2024-02-23T09:33:24;7.00;99.90
19813;DHT22;10066;48.108;11.448;2024-02-23T09:35:51;7.00;99.90
19813;DHT22;10066;48.108;11.448;2024-02-23T09:38:18;7.00;99.90
19813;DHT22;10066;48.108;11.448;2024-02-23T09:40:46;7.00;99.90
19813;DHT22;10066;48.108;11.448;2024-02-23T09:43:14;6.90;99.90
19813;DHT22;10066;48.108;11.448;2024-02-23T09:45:42;6.90;99.90
19813;DHT22;10066;48.108;11.448;2024-02-23T09:48:10;6.90;99.90
19813;DHT22;10066;48.108;11.448;2024-02-23T09:50:40;6.90;99.90
19813;DHT22;10066;48.108;11.448;2024-02-23T09:53:10;6.90;99.90
19813;DHT22;10066;48.108;11.448;2024-02-23T09:55:38;6.90;99.90
19813;DHT22;10066;48.108;11.448;2024-02-23T09:58:06;6.90;99.90
19813;DHT22;10066;48.108;11.448;2024-02-23T10:00:37;6.90;99.90
19813;DHT22;10066;48.108;11.448;2024-02-23T10:03:06;6.90;99.90
19813;DHT22;10066;48.108;11.448;2024-02-23T10:05:33;6.90;99.90
19813;DHT22;10066;48.108;11.448;2024-02-23T10:08:00;7.00;99.90
19813;DHT22;10066;48.108;11.448;2024-02-23T10:10:30;6.90;99.90
19813;DHT22;10066;48.108;11.448;2024-02-23T10:12:58;6.90;99.90
19813;DHT22;10066;48.108;11.448;2024-02-23T10:15:25;6.90;99.90
19813;DHT22;10066;48.108;11.448;2024-02-23T10:17:53;6.90;99.90
19813;DHT22;10066;48.108;11.448;2024-02-23T10:20:21;6.90;99.90
19813;DHT22;10066;48.108;11.448;2024-02-23T10:22:47;6.90;99.90
19813;DHT22;10066;48.108;11.448;2024-02-23T10:25:15;6.80;99.90
19813;DHT22;10066;48.108;11.448;2024-02-23T10:27:42;6.80;99.90
19813;DHT22;10066;48.108;11.448;2024-02-23T10:30:10;6.90;99.90
19813;DHT22;10066;48.108;11.448;2024-02-23T10:32:39;6.90;99.90
19813;DHT22;10066;48.108;11.448;2024-02-23T10:35:11;6.80;99.90
19813;DHT22;10066;48.108;11.448;2024-02-23T10:37:42;6.80;99.90
19813;DHT22;10066;48.108;11.448;2024-02-23T10:40:11;6.80;99.90
19813;DHT22;10066;48.108;11.448;2024-02-23T10:42:39;6.80;99.90
19813;DHT22;10066;48.108;11.448;2024-02-23T10:45:08;6.90;99.90
19813;DHT22;10066;48.108;11.448;2024-02-23T10:47:36;6.90;99.90
19813;DHT22;10066;48.108;11.448;2024-02-23T10:50:04;6.80;99.90
19813;DHT22;10066;48.108;11.448;2024-02-23T10:52:35;6.80;99.90
19813;DHT22;10066;48.108;11.448;2024-02-23T10:55:08;6.70;99.90
19813;DHT22;10066;48.108;11.448;2024-02-23T10:57:35;6.70;99.90
19813;DHT22;10066;48.108;11.448;2024-02-23T11:00:03;6.60;99.90
19813;DHT22;10066;48.108;11.448;2024-02-23T11:02:36;6.60;99.90
19813;DHT22;10066;48.108;11.448;2024-02-23T11:05:05;6.70;99.90
19813;DHT22;10066;48.108;11.448;2024-02-23T11:07:38;6.70;99.90
19813;DHT22;10066;48.108;11.448;2024-02-23T11:10:06;6.60;99.90
19813;DHT22;10066;48.108;11.448;2024-02-23T11:12:35;6.60;99.90
19813;DHT22;10066;48.108;11.448;2024-02-23T11:15:02;6.70;99.90
19813;DHT22;10066;48.108;11.448;2024-02-23T11:17:31;6.70;99.90
19813;DHT22;10066;48.108;11.448;2024-02-23T11:19:58;6.70;99.90
19813;DHT22;10066;48.108;11.448;2024-02-23T11:22:26;6.70;99.90
19813;DHT22;10066;48.108;11.448;2024-02-23T11:25:00;6.80;99.90
19813;DHT22;10066;48.108;11.448;2024-02-23T11:27:30;6.80;99.90
19813;DHT22;10066;48.108;11.448;2024-02-23T11:30:04;6.80;99.90
19813;DHT22;10066;48.108;11.448;2024-02-23T11:32:39;6.80;99.90
19813;DHT22;10066;48.108;11.448;2024-02-23T11:35:07;6.80;99.90
19813;DHT22;10066;48.108;11.448;2024-02-23T11:37:47;6.90;99.90
19813;DHT22;10066;48.108;11.448;2024-02-23T11:40:17;6.90;99.90
19813;DHT22;10066;48.108;11.448;2024-02-23T11:42:45;6.90;99.90
19813;DHT22;10066;48.108;11.448;2024-02-23T11:45:13;6.90;99.90
19813;DHT22;10066;48.108;11.448;2024-02-23T11:47:40;6.90;99.90
19813;DHT22;10066;48.108;11.448;2024-02-23T11:50:09;6.90;99.90
19813;DHT22;10066;48.108;11.448;2024-02-23T11:52:39;6.90;99.90
19813;DHT22;10066;48.108;11.448;2024-02-23T11:55:07;6.80;99.90
19813;DHT22;10066;48.108;11.448;2024-02-23T11:57:36;6.80;99.90
19813;DHT22;10066;48.108;11.448;2024-02-23T12:00:06;6.80;99.90
19813;DHT22;10066;48.108;11.448;2024-02-23T12:02:35;6.80;99.90
19813;DHT22;10066;48.108;11.448;2024-02-23T12:05:02;6.80;99.90
19813;DHT22;10066;48.108;11.448;2024-02-23T12:07:29;6.70;99.90
19813;DHT22;10066;48.108;11.448;2024-02-23T12:09:57;6.70;99.90
19813;DHT22;10066;48.108;11.448;2024-02-23T12:12:25;6.70;99.90
19813;DHT22;10066;48.108;11.448;2024-02-23T12:14:53;6.70;99.90
19813;DHT22;10066;48.108;11.448;2024-02-23T12:17:21;6.60;99.90
19813;DHT22;10066;48.108;11.448;2024-02-23T12:19:48;6.60;99.90
19813;DHT22;10066;48.108;11.448;2024-02-23T12:22:15;6.60;99.90
19813;DHT22;10066;48.108;11.448;2024-02-23T12:24:45;6.50;99.90
19813;DHT22;10066;48.108;11.448;2024-02-23T12:27:16;6.50;99.90
19813;DHT22;10066;48.108;11.448;2024-02-23T12:29:52;6.40;99.90
19813;DHT22;10066;48.108;11.448;2024-02-23T12:32:20;6.40;99.90
19813;DHT22;10066;48.108;11.448;2024-02-23T12:34:48;6.40;99.90
19813;DHT22;10066;48.108;11.448;2024-02-23T12:37:15;6.40;99.90
19813;DHT22;10066;48.108;11.448;2024-02-23T12:39:42;6.40;99.90
19813;DHT22;10066;48.108;11.448;2024-02-23T12:42:10;6.40;99.90
19813;DHT22;10066;48.108;11.448;2024-02-23T12:44:37;6.50;99.90
19813;DHT22;10066;48.108;11.448;2024-02-23T12:47:05;6.50;99.90
19813;DHT22;10066;48.108;11.448;2024-02-23T12:49:32;6.50;99.90
19813;DHT22;10066;48.108;11.448;2024-02-23T12:51:59;6.50;99.90
19813;DHT22;10066;48.108;11.448;2024-02-23T12:54:27;6.50;99.90
19813;DHT22;10066;48.108;11.448;2024-02-23T12:56:54;6.50;99.90
19813;DHT22;10066;48.108;11.448;2024-02-23T12:59:22;6.60;99.90
19813;DHT22;10066;48.108;11.448;2024-02-23T13:01:49;6.60;99.90
19813;DHT22;10066;48.108;11.448;2024-02-23T13:04:18;6.60;99.90
19813;DHT22;10066;48.108;11.448;2024-02-23T13:06:46;6.70;99.90
19813;DHT22;10066;48.108;11.448;2024-02-23T13:09:13;6.60;99.90
19813;DHT22;10066;48.108;11.448;2024-02-23T13:11:40;6.60;99.90
19813;DHT22;10066;48.108;11.448;2024-02-23T13:14:07;6.60;99.90
19813;DHT22;10066;48.108;11.448;2024-02-23T13:16:35;6.60;99.90
19813;DHT22;10066;48.108;11.448;2024-02-23T13:19:02;6.60;99.90
19813;DHT22;10066;48.108;11.448;2024-02-23T13:21:30;6.60;99.90
19813;DHT22;10066;48.108;11.448;2024-02-23T13:23:58;6.50;99.90
19813;DHT22;10066;48.108;11.448;2024-02-23T13:26:25;6.50;99.90
19813;DHT22;10066;48.108;11.448;2024-02-23T13:28:52;6.50;99.90
19813;DHT22;10066;48.108;11.448;2024-02-23T13:31:20;6.50;99.90
19813;DHT22;10066;48.108;11.448;2024-02-23T13:33:47;6.50;99.90
19813;DHT22;10066;48.108;11.448;2024-02-23T13:36:14;6.50;99.90
19813;DHT22;10066;48.108;11.448;2024-02-23T13:38:44;6.50;99.90
19813;DHT22;10066;48.108;11.448;2024-02-23T13:41:11;6.50;99.90
19813;DHT22;10066;48.108;11.448;2024-02-23T13:43:38;6.50;99.90
19813;DHT22;10066;48.108;11.448;2024-02-23T13:46:05;6.40;99.90
19813;DHT22;10066;48.108;11.448;2024-02-23T13:48:32;6.40;99.90
19813;DHT22;10066;48.108;11.448;2024-02-23T13:51:00;6.40;99.90
19813;DHT22;10066;48.108;11.448;2024-02-23T13:53:29;6.40;99.90
19813;DHT22;10066;48.108;11.448;2024-02-23T13:55:58;6.50;99.90
19813;DHT22;10066;48.108;11.448;2024-02-23T13:58:27;6.50;99.90
19813;DHT22;10066;48.108;11.448;2024-02-23T14:00:54;6.40;99.90
19813;DHT22;10066;48.108;11.448;2024-02-23T14:03:21;6.40;99.90
19813;DHT22;10066;48.108;11.448;2024-02-23T14:05:48;6.40;99.90
19813;DHT22;10066;48.108;11.448;2024-02-23T14:08:15;6.40;99.90
19813;DHT22;10066;48.108;11.448;2024-02-23T14:10:42;6.40;99.90
19813;DHT22;10066;48.108;11.448;2024-02-23T14:13:12;6.40;99.90
19813;DHT22;10066;48.108;11.448;2024-02-23T14:15:39;6.40;99.90
19813;DHT22;10066;48.108;11.448;2024-02-23T14:18:06;6.40;99.90
19813;DHT22;10066;48.108;11.448;2024-02-23T14:20:33;6.30;99.90
19813;DHT22;10066;48.108;11.448;2024-02-23T14:23:00;6.30;99.90
19813;DHT22;10066;48.108;11.448;2024-02-23T14:25:27;6.30;99.90
19813;DHT22;10066;48.108;11.448;2024-02-23T14:27:54;6.20;99.90
19813;DHT22;10066;48.108;11.448;2024-02-23T14:30:23;6.20;99.90
19813;DHT22;10066;48.108;11.448;2024-02-23T14:32:50;6.20;99.90
19813;DHT22;10066;48.108;11.448;2024-02-23T14:35:17;6.20;99.90
19813;DHT22;10066;48.108;11.448;2024-02-23T14:37:44;6.10;99.90
19813;DHT22;10066;48.108;11.448;2024-02-23T14:40:12;6.10;99.90
19813;DHT22;10066;48.108;11.448;2024-02-23T14:42:40;6.00;99.90
19813;DHT22;10066;48.108;11.448;2024-02-23T14:45:08;5.90;99.90
19813;DHT22;10066;48.108;11.448;2024-02-23T14:47:39;5.80;99.90
19813;DHT22;10066;48.108;11.448;2024-02-23T14:50:07;5.70;99.90
19813;DHT22;10066;48.108;11.448;2024-02-23T14:52:35;5.60;99.90
19813;DHT22;10066;48.108;11.448;2024-02-23T14:55:02;5.60;99.90
19813;DHT22;10066;48.108;11.448;2024-02-23T14:57:30;5.50;99.90
19813;DHT22;10066;48.108;11.448;2024-02-23T14:59:57;5.50;99.90
19813;DHT22;10066;48.108;11.448;2024-02-23T15:02:24;5.40;99.90
19813;DHT22;10066;48.108;11.448;2024-02-23T15:04:52;5.40;99.90
19813;DHT22;10066;48.108;11.448;2024-02-23T15:07:20;5.40;99.90
19813;DHT22;10066;48.108;11.448;2024-02-23T15:09:47;5.40;99.90
19813;DHT22;10066;48.108;11.448;2024-02-23T15:12:14;5.40;99.90
19813;DHT22;10066;48.108;11.448;2024-02-23T15:14:41;5.30;99.90
19813;DHT22;10066;48.108;11.448;2024-02-23T15:17:08;5.20;99.90
19813;DHT22;10066;48.108;11.448;2024-02-23T15:19:35;5.20;99.90
19813;DHT22;10066;48.108;11.448;2024-02-23T15:22:04;5.10;99.90
19813;DHT22;10066;48.108;11.448;2024-02-23T15:24:33;5.10;99.90
19813;DHT22;10066;48.108;11.448;2024-02-23T15:27:00;5.10;99.90
19813;DHT22;10066;48.108;11.448;2024-02-23T15:29:27;5.10;99.90
19813;DHT22;10066;48.108;11.448;2024-02-23T15:31:54;5.10;99.90
19813;DHT22;10066;48.108;11.448;2024-02-23T15:34:21;5.10;99.90